sensor_id;sensor_type;location;lat;lon;timestamp;pressure;altitude;pressure_sealevel;temperature;humidity
38780;BME280;29273;49.962;9.768;2023-06-05T00:00:53;100034.94;;;19.19;28.17
38780;BME280;29273;49.962;9.768;2023-06-05T00:03:19;100031.94;;;19.16;28.10
38780;BME280;29273;49.962;9.768;2023-06-05T00:05:45;100037.81;;;19.13;28.25
38780;BME280;29273;49.962;9.768;2023-06-05T00:08:10;100032.41;;;19.08;28.32
38780;BME280;29273;49.962;9.768;2023-06-05T00:10:37;100036.13;;;19.07;27.94
38780;BME280;29273;49.962;9.768;2023-06-05T00:13:02;100028.88;;;19.02;28.12
38780;BME280;29273;49.962;9.768;2023-06-05T00:15:27;100031.81;;;19.00;28.25
38780;BME280;29273;49.962;9.768;2023-06-05T00:17:53;100034.72;;;18.99;28.20
38780;BME280;29273;49.962;9.768;2023-06-05T00:20:20;100026.94;;;18.97;28.38
38780;BME280;29273;49.962;9.768;2023-06-05T00:22:45;100029.06;;;18.95;28.24
38780;BME280;29273;49.962;9.768;2023-06-05T00:25:12;100033.84;;;18.93;28.83
38780;BME280;29273;49.962;9.768;2023-06-05T00:27:38;100029.00;;;18.90;28.80
38780;BME280;29273;49.962;9.768;2023-06-05T00:30:07;100029.25;;;18.89;28.23
38780;BME280;29273;49.962;9.768;2023-06-05T00:32:35;100031.06;;;18.83;29.07
38780;BME280;29273;49.962;9.768;2023-06-05T00:35:01;100029.91;;;18.79;29.15
38780;BME280;29273;49.962;9.768;2023-06-05T00:37:27;100030.16;;;18.77;29.14
38780;BME280;29273;49.962;9.768;2023-06-05T00:39:53;100032.53;;;18.74;29.54
38780;BME280;29273;49.962;9.768;2023-06-05T00:42:18;100029.28;;;18.72;29.54
38780;BME280;29273;49.962;9.768;2023-06-05T00:44:44;100024.16;;;18.70;29.50
38780;BME280;29273;49.962;9.768;2023-06-05T00:47:10;100029.81;;;18.68;29.61
38780;BME280;29273;49.962;9.768;2023-06-05T00:49:36;100028.97;;;18.68;30.01
38780;BME280;29273;49.962;9.768;2023-06-05T00:52:02;100028.66;;;18.64;30.19
38780;BME280;29273;49.962;9.768;2023-06-05T00:54:28;100028.91;;;18.63;29.82
38780;BME280;29273;49.962;9.768;2023-06-05T00:56:55;100029.66;;;18.58;30.10
38780;BME280;29273;49.962;9.768;2023-06-05T00:59:21;100026.41;;;18.56;30.14
38780;BME280;29273;49.962;9.768;2023-06-05T01:01:47;100023.97;;;18.55;30.44
38780;BME280;29273;49.962;9.768;2023-06-05T01:04:13;100031.22;;;18.54;30.45
38780;BME280;29273;49.962;9.768;2023-06-05T01:06:39;100026.66;;;18.55;30.50
38780;BME280;29273;49.962;9.768;2023-06-05T01:09:07;100028.53;;;18.54;30.30
38780;BME280;29273;49.962;9.768;2023-06-05T01:11:55;100030.41;;;18.54;29.20
38780;BME280;29273;49.962;9.768;2023-06-05T01:14:35;100022.13;;;18.55;29.04
38780;BME280;29273;49.962;9.768;2023-06-05T01:17:01;100029.28;;;18.49;30.70
38780;BME280;29273;49.962;9.768;2023-06-05T01:19:28;100027.09;;;18.46;30.70
38780;BME280;29273;49.962;9.768;2023-06-05T01:22:00;100025.78;;;18.49;29.98
38780;BME280;29273;49.962;9.768;2023-06-05T01:24:26;100022.75;;;18.40;30.92
38780;BME280;29273;49.962;9.768;2023-06-05T01:29:31;100025.41;;;18.40;29.67
38780;BME280;29273;49.962;9.768;2023-06-05T01:32:04;100025.06;;;18.37;30.12
38780;BME280;29273;49.962;9.768;2023-06-05T01:34:32;100027.94;;;18.30;31.09
38780;BME280;29273;49.962;9.768;2023-06-05T01:36:58;100024.16;;;18.26;31.34
38780;BME280;29273;49.962;9.768;2023-06-05T01:39:24;100023.84;;;18.22;31.07
38780;BME280;29273;49.962;9.768;2023-06-05T01:41:54;100024.31;;;18.19;30.68
38780;BME280;29273;49.962;9.768;2023-06-05T01:44:20;100026.38;;;18.12;31.16
38780;BME280;29273;49.962;9.768;2023-06-05T01:46:46;100034.91;;;18.09;31.41
38780;BME280;29273;49.962;9.768;2023-06-05T01:49:13;100025.94;;;18.03;32.13
38780;BME280;29273;49.962;9.768;2023-06-05T01:51:38;100025.06;;;17.98;32.00
38780;BME280;29273;49.962;9.768;2023-06-05T01:54:04;100028.72;;;17.91;32.32
38780;BME280;29273;49.962;9.768;2023-06-05T01:56:31;100025.72;;;17.88;32.29
38780;BME280;29273;49.962;9.768;2023-06-05T01:58:58;100026.66;;;17.82;32.24
38780;BME280;29273;49.962;9.768;2023-06-05T02:01:23;100019.88;;;17.74;32.33
38780;BME280;29273;49.962;9.768;2023-06-05T02:03:49;100024.91;;;17.70;32.73
38780;BME280;29273;49.962;9.768;2023-06-05T02:06:16;100018.88;;;17.63;32.43
38780;BME280;29273;49.962;9.768;2023-06-05T02:08:42;100014.28;;;17.59;32.91
38780;BME280;29273;49.962;9.768;2023-06-05T02:11:08;100021.97;;;17.55;33.20
38780;BME280;29273;49.962;9.768;2023-06-05T02:13:39;100016.59;;;17.55;32.02
38780;BME280;29273;49.962;9.768;2023-06-05T02:16:08;100020.84;;;17.51;32.29
38780;BME280;29273;49.962;9.768;2023-06-05T02:18:34;100018.31;;;17.44;33.22
38780;BME280;29273;49.962;9.768;2023-06-05T02:21:03;100024.16;;;17.41;33.57
38780;BME280;29273;49.962;9.768;2023-06-05T02:23:29;100015.78;;;17.37;33.64
38780;BME280;29273;49.962;9.768;2023-06-05T02:25:54;100025.34;;;17.33;33.40
38780;BME280;29273;49.962;9.768;2023-06-05T02:28:20;100019.66;;;17.30;33.75
38780;BME280;29273;49.962;9.768;2023-06-05T02:30:46;100018.28;;;17.27;34.06
38780;BME280;29273;49.962;9.768;2023-06-05T02:33:13;100010.19;;;17.22;33.71
38780;BME280;29273;49.962;9.768;2023-06-05T02:35:40;100014.38;;;17.18;33.95
38780;BME280;29273;49.962;9.768;2023-06-05T02:38:10;100009.56;;;17.20;33.01
38780;BME280;29273;49.962;9.768;2023-06-05T02:40:38;100018.25;;;17.10;34.04
38780;BME280;29273;49.962;9.768;2023-06-05T02:43:03;100008.84;;;17.08;34.39
38780;BME280;29273;49.962;9.768;2023-06-05T02:45:33;100009.41;;;17.10;33.29
38780;BME280;29273;49.962;9.768;2023-06-05T02:47:59;100009.78;;;17.01;34.47
38780;BME280;29273;49.962;9.768;2023-06-05T02:50:24;100004.91;;;16.98;34.34
38780;BME280;29273;49.962;9.768;2023-06-05T02:52:52;100012.38;;;16.96;34.35
38780;BME280;29273;49.962;9.768;2023-06-05T02:55:24;100016.59;;;16.92;34.81
38780;BME280;29273;49.962;9.768;2023-06-05T02:57:55;100012.50;;;16.90;34.72
38780;BME280;29273;49.962;9.768;2023-06-05T03:00:29;100015.66;;;16.87;34.56
38780;BME280;29273;49.962;9.768;2023-06-05T03:02:56;100009.94;;;16.83;34.85
38780;BME280;29273;49.962;9.768;2023-06-05T03:05:28;100012.28;;;16.79;34.93
38780;BME280;29273;49.962;9.768;2023-06-05T03:07:59;100012.19;;;16.74;34.70
38780;BME280;29273;49.962;9.768;2023-06-05T03:10:26;100008.09;;;16.72;34.74
38780;BME280;29273;49.962;9.768;2023-06-05T03:12:53;100006.97;;;16.68;35.28
38780;BME280;29273;49.962;9.768;2023-06-05T03:15:19;100010.34;;;16.63;35.03
38780;BME280;29273;49.962;9.768;2023-06-05T03:17:46;100014.31;;;16.60;35.43
38780;BME280;29273;49.962;9.768;2023-06-05T03:20:12;100008.59;;;16.57;35.37
38780;BME280;29273;49.962;9.768;2023-06-05T03:22:39;100013.38;;;16.55;35.45
38780;BME280;29273;49.962;9.768;2023-06-05T03:25:07;100012.81;;;16.53;35.63
38780;BME280;29273;49.962;9.768;2023-06-05T03:27:34;100012.47;;;16.49;35.79
38780;BME280;29273;49.962;9.768;2023-06-05T03:30:00;100015.84;;;16.44;36.02
38780;BME280;29273;49.962;9.768;2023-06-05T03:32:26;100013.66;;;16.41;36.32
38780;BME280;29273;49.962;9.768;2023-06-05T03:34:51;100010.88;;;16.36;36.28
38780;BME280;29273;49.962;9.768;2023-06-05T03:37:18;100011.09;;;16.35;36.35
38780;BME280;29273;49.962;9.768;2023-06-05T03:39:46;100014.84;;;16.34;36.24
38780;BME280;29273;49.962;9.768;2023-06-05T03:42:11;100022.72;;;16.28;36.33
38780;BME280;29273;49.962;9.768;2023-06-05T03:44:37;100021.09;;;16.27;35.98
38780;BME280;29273;49.962;9.768;2023-06-05T03:47:03;100024.00;;;16.26;36.17
38780;BME280;29273;49.962;9.768;2023-06-05T03:49:30;100026.13;;;16.24;36.01
38780;BME280;29273;49.962;9.768;2023-06-05T03:51:55;100027.38;;;16.21;36.04
38780;BME280;29273;49.962;9.768;2023-06-05T03:54:28;100022.25;;;16.20;36.08
38780;BME280;29273;49.962;9.768;2023-06-05T03:56:57;100024.47;;;16.23;35.01
38780;BME280;29273;49.962;9.768;2023-06-05T03:59:26;100029.13;;;16.16;36.28
38780;BME280;29273;49.962;9.768;2023-06-05T04:01:57;100028.53;;;16.14;36.88
38780;BME280;29273;49.962;9.768;2023-06-05T04:04:23;100022.38;;;16.13;36.42
38780;BME280;29273;49.962;9.768;2023-06-05T04:06:53;100029.13;;;16.16;35.96
38780;BME280;29273;49.962;9.768;2023-06-05T04:09:20;100030.63;;;16.12;36.84
38780;BME280;29273;49.962;9.768;2023-06-05T04:11:45;100031.47;;;16.12;36.71
38780;BME280;29273;49.962;9.768;2023-06-05T04:14:12;100034.13;;;16.12;36.42
38780;BME280;29273;49.962;9.768;2023-06-05T04:16:38;100033.88;;;16.14;36.97
38780;BME280;29273;49.962;9.768;2023-06-05T04:19:06;100033.88;;;16.14;36.87
38780;BME280;29273;49.962;9.768;2023-06-05T04:21:33;100035.50;;;16.15;36.63
38780;BME280;29273;49.962;9.768;2023-06-05T04:23:59;100035.50;;;16.15;36.86
38780;BME280;29273;49.962;9.768;2023-06-05T04:26:25;100036.31;;;16.15;36.80
38780;BME280;29273;49.962;9.768;2023-06-05T04:28:51;100041.44;;;16.17;37.14
38780;BME280;29273;49.962;9.768;2023-06-05T04:31:17;100038.75;;;16.17;36.99
38780;BME280;29273;49.962;9.768;2023-06-05T04:33:43;100045.75;;;16.18;37.24
38780;BME280;29273;49.962;9.768;2023-06-05T04:36:09;100040.97;;;16.20;37.35
38780;BME280;29273;49.962;9.768;2023-06-05T04:38:34;100037.72;;;16.18;37.65
38780;BME280;29273;49.962;9.768;2023-06-05T04:41:00;100036.44;;;16.20;37.73
38780;BME280;29273;49.962;9.768;2023-06-05T04:43:26;100030.84;;;16.22;37.87
38780;BME280;29273;49.962;9.768;2023-06-05T04:45:51;100034.13;;;16.24;37.90
38780;BME280;29273;49.962;9.768;2023-06-05T04:48:17;100031.22;;;16.25;37.56
38780;BME280;29273;49.962;9.768;2023-06-05T04:50:43;100038.19;;;16.26;37.69
38780;BME280;29273;49.962;9.768;2023-06-05T04:53:10;100035.03;;;16.30;37.02
38780;BME280;29273;49.962;9.768;2023-06-05T04:55:37;100040.97;;;16.32;36.91
38780;BME280;29273;49.962;9.768;2023-06-05T04:58:02;100038.06;;;16.33;37.08
38780;BME280;29273;49.962;9.768;2023-06-05T05:00:30;100040.25;;;16.36;36.94
38780;BME280;29273;49.962;9.768;2023-06-05T05:02:57;100033.66;;;16.39;37.39
38780;BME280;29273;49.962;9.768;2023-06-05T05:05:25;100035.59;;;16.43;37.07
38780;BME280;29273;49.962;9.768;2023-06-05T05:07:53;100042.13;;;16.48;37.14
38780;BME280;29273;49.962;9.768;2023-06-05T05:10:20;100035.47;;;16.50;37.03
38780;BME280;29273;49.962;9.768;2023-06-05T05:12:46;100031.53;;;16.53;37.03
38780;BME280;29273;49.962;9.768;2023-06-05T05:15:13;100031.63;;;16.58;37.22
38780;BME280;29273;49.962;9.768;2023-06-05T05:17:38;100033.59;;;16.62;37.30
38780;BME280;29273;49.962;9.768;2023-06-05T05:20:05;100033.16;;;16.65;37.12
38780;BME280;29273;49.962;9.768;2023-06-05T05:22:32;100031.03;;;16.68;37.29
38780;BME280;29273;49.962;9.768;2023-06-05T05:24:58;100033.81;;;16.73;37.35
38780;BME280;29273;49.962;9.768;2023-06-05T05:27:24;100033.56;;;16.74;38.00
38780;BME280;29273;49.962;9.768;2023-06-05T05:29:50;100031.81;;;16.80;37.94
38780;BME280;29273;49.962;9.768;2023-06-05T05:32:17;100034.81;;;16.83;38.23
38780;BME280;29273;49.962;9.768;2023-06-05T05:34:42;100030.91;;;16.86;38.33
38780;BME280;29273;49.962;9.768;2023-06-05T05:37:08;100032.03;;;16.90;38.69
38780;BME280;29273;49.962;9.768;2023-06-05T05:39:34;100043.91;;;16.94;38.81
38780;BME280;29273;49.962;9.768;2023-06-05T05:41:59;100032.50;;;16.99;38.79
38780;BME280;29273;49.962;9.768;2023-06-05T05:44:26;100036.31;;;17.03;39.01
38780;BME280;29273;49.962;9.768;2023-06-05T05:46:52;100041.97;;;17.07;39.13
38780;BME280;29273;49.962;9.768;2023-06-05T05:49:17;100042.06;;;17.12;39.18
38780;BME280;29273;49.962;9.768;2023-06-05T05:51:43;100038.69;;;17.16;39.70
38780;BME280;29273;49.962;9.768;2023-06-05T05:54:08;100051.94;;;17.23;39.50
38780;BME280;29273;49.962;9.768;2023-06-05T05:56:34;100048.53;;;17.28;39.25
38780;BME280;29273;49.962;9.768;2023-06-05T05:59:03;100042.78;;;17.36;38.82
38780;BME280;29273;49.962;9.768;2023-06-05T06:01:28;100049.88;;;17.42;39.25
38780;BME280;29273;49.962;9.768;2023-06-05T06:03:54;100045.41;;;17.48;38.61
38780;BME280;29273;49.962;9.768;2023-06-05T06:06:20;100045.25;;;17.54;38.68
38780;BME280;29273;49.962;9.768;2023-06-05T06:08:46;100048.00;;;17.60;38.78
38780;BME280;29273;49.962;9.768;2023-06-05T06:11:12;100041.69;;;17.66;37.89
38780;BME280;29273;49.962;9.768;2023-06-05T06:13:38;100043.16;;;17.73;38.00
38780;BME280;29273;49.962;9.768;2023-06-05T06:16:03;100036.81;;;17.80;37.90
38780;BME280;29273;49.962;9.768;2023-06-05T06:18:29;100038.78;;;17.84;37.34
38780;BME280;29273;49.962;9.768;2023-06-05T06:20:54;100038.41;;;17.92;37.78
38780;BME280;29273;49.962;9.768;2023-06-05T06:23:20;100038.22;;;17.99;36.87
38780;BME280;29273;49.962;9.768;2023-06-05T06:25:46;100043.44;;;18.06;36.22
38780;BME280;29273;49.962;9.768;2023-06-05T06:28:11;100036.84;;;18.14;35.90
38780;BME280;29273;49.962;9.768;2023-06-05T06:30:37;100040.97;;;18.21;36.27
38780;BME280;29273;49.962;9.768;2023-06-05T06:33:02;100038.09;;;18.28;35.50
38780;BME280;29273;49.962;9.768;2023-06-05T06:35:29;100033.13;;;18.37;36.06
38780;BME280;29273;49.962;9.768;2023-06-05T06:37:56;100034.56;;;18.44;35.56
38780;BME280;29273;49.962;9.768;2023-06-05T06:40:22;100033.34;;;18.52;35.11
38780;BME280;29273;49.962;9.768;2023-06-05T06:42:49;100031.28;;;18.59;35.37
38780;BME280;29273;49.962;9.768;2023-06-05T06:45:34;100030.03;;;18.67;35.37
38780;BME280;29273;49.962;9.768;2023-06-05T06:48:00;100036.56;;;18.76;34.98
38780;BME280;29273;49.962;9.768;2023-06-05T06:50:25;100034.53;;;18.83;34.62
38780;BME280;29273;49.962;9.768;2023-06-05T06:52:51;100030.59;;;18.91;34.70
38780;BME280;29273;49.962;9.768;2023-06-05T06:55:17;100032.06;;;18.99;34.70
38780;BME280;29273;49.962;9.768;2023-06-05T06:57:42;100028.34;;;19.05;34.45
38780;BME280;29273;49.962;9.768;2023-06-05T07:00:08;100029.78;;;19.13;34.61
38780;BME280;29273;49.962;9.768;2023-06-05T07:02:35;100030.94;;;19.22;34.05
38780;BME280;29273;49.962;9.768;2023-06-05T07:05:02;100030.75;;;19.29;34.47
38780;BME280;29273;49.962;9.768;2023-06-05T07:07:28;100025.97;;;19.36;34.05
38780;BME280;29273;49.962;9.768;2023-06-05T07:09:54;100030.88;;;19.44;34.21
38780;BME280;29273;49.962;9.768;2023-06-05T07:12:22;100028.78;;;19.51;34.55
38780;BME280;29273;49.962;9.768;2023-06-05T07:14:48;100022.94;;;19.59;33.38
38780;BME280;29273;49.962;9.768;2023-06-05T07:17:13;100028.09;;;19.66;33.03
38780;BME280;29273;49.962;9.768;2023-06-05T07:19:39;100024.41;;;19.72;32.30
38780;BME280;29273;49.962;9.768;2023-06-05T07:22:05;100021.81;;;19.83;32.37
38780;BME280;29273;49.962;9.768;2023-06-05T07:24:32;100021.06;;;19.87;32.96
38780;BME280;29273;49.962;9.768;2023-06-05T07:26:59;100018.97;;;20.00;32.85
38780;BME280;29273;49.962;9.768;2023-06-05T07:29:26;100015.78;;;20.03;33.32
38780;BME280;29273;49.962;9.768;2023-06-05T07:31:53;100015.28;;;20.11;32.71
38780;BME280;29273;49.962;9.768;2023-06-05T07:34:20;100009.69;;;20.18;32.88
38780;BME280;29273;49.962;9.768;2023-06-05T07:36:47;100006.50;;;20.26;32.08
38780;BME280;29273;49.962;9.768;2023-06-05T07:39:16;100004.94;;;20.35;32.32
38780;BME280;29273;49.962;9.768;2023-06-05T07:41:42;100010.88;;;20.37;31.84
38780;BME280;29273;49.962;9.768;2023-06-05T07:44:12;100008.75;;;20.49;32.09
38780;BME280;29273;49.962;9.768;2023-06-05T07:46:45;100004.75;;;20.57;32.61
38780;BME280;29273;49.962;9.768;2023-06-05T07:49:11;100002.06;;;20.57;31.19
38780;BME280;29273;49.962;9.768;2023-06-05T07:51:36;99999.41;;;20.62;31.53
38780;BME280;29273;49.962;9.768;2023-06-05T07:54:06;100003.78;;;20.74;31.64
38780;BME280;29273;49.962;9.768;2023-06-05T07:56:32;100000.00;;;20.75;30.83
38780;BME280;29273;49.962;9.768;2023-06-05T07:58:59;99999.50;;;20.83;31.41
38780;BME280;29273;49.962;9.768;2023-06-05T08:01:25;99992.50;;;20.87;31.22
38780;BME280;29273;49.962;9.768;2023-06-05T08:03:51;99991.44;;;20.93;30.51
38780;BME280;29273;49.962;9.768;2023-06-05T08:06:16;99992.53;;;20.97;30.86
38780;BME280;29273;49.962;9.768;2023-06-05T08:08:42;99986.91;;;21.04;31.10
38780;BME280;29273;49.962;9.768;2023-06-05T08:11:09;99985.56;;;21.12;30.97
38780;BME280;29273;49.962;9.768;2023-06-05T08:13:36;99980.19;;;21.17;31.24
38780;BME280;29273;49.962;9.768;2023-06-05T08:16:01;99988.00;;;21.23;30.68
38780;BME280;29273;49.962;9.768;2023-06-05T08:18:27;99987.75;;;21.30;31.01
38780;BME280;29273;49.962;9.768;2023-06-05T08:20:53;99982.88;;;21.37;30.41
38780;BME280;29273;49.962;9.768;2023-06-05T08:23:18;99987.72;;;21.46;30.39
38780;BME280;29273;49.962;9.768;2023-06-05T08:25:44;99977.78;;;21.51;30.12
38780;BME280;29273;49.962;9.768;2023-06-05T08:28:09;99984.53;;;21.59;30.03
38780;BME280;29273;49.962;9.768;2023-06-05T08:30:35;99975.63;;;21.64;30.41
38780;BME280;29273;49.962;9.768;2023-06-05T08:33:00;99976.16;;;21.71;29.51
38780;BME280;29273;49.962;9.768;2023-06-05T08:35:26;99975.63;;;21.79;29.83
38780;BME280;29273;49.962;9.768;2023-06-05T08:37:51;99972.63;;;21.86;30.07
38780;BME280;29273;49.962;9.768;2023-06-05T08:40:18;99971.00;;;21.95;30.10
38780;BME280;29273;49.962;9.768;2023-06-05T08:42:44;99964.78;;;21.99;29.81
38780;BME280;29273;49.962;9.768;2023-06-05T08:45:09;99974.22;;;22.07;30.17
38780;BME280;29273;49.962;9.768;2023-06-05T08:47:37;99975.25;;;22.16;29.53
38780;BME280;29273;49.962;9.768;2023-06-05T08:50:05;99967.69;;;22.24;29.78
38780;BME280;29273;49.962;9.768;2023-06-05T08:52:38;99971.72;;;22.31;30.18
38780;BME280;29273;49.962;9.768;2023-06-05T08:55:05;99970.38;;;22.34;29.20
38780;BME280;29273;49.962;9.768;2023-06-05T08:57:34;99963.03;;;22.45;30.21
38780;BME280;29273;49.962;9.768;2023-06-05T09:00:03;99964.94;;;22.44;29.32
38780;BME280;29273;49.962;9.768;2023-06-05T09:02:41;99970.03;;;22.51;29.63
38780;BME280;29273;49.962;9.768;2023-06-05T09:05:09;99963.81;;;22.56;28.82
38780;BME280;29273;49.962;9.768;2023-06-05T09:07:35;99967.25;;;22.61;29.19
38780;BME280;29273;49.962;9.768;2023-06-05T09:10:02;99965.88;;;22.69;28.68
38780;BME280;29273;49.962;9.768;2023-06-05T09:12:28;99962.34;;;22.73;29.08
38780;BME280;29273;49.962;9.768;2023-06-05T09:14:53;99953.41;;;22.78;28.49
38780;BME280;29273;49.962;9.768;2023-06-05T09:17:21;99950.66;;;22.88;28.87
38780;BME280;29273;49.962;9.768;2023-06-05T09:19:47;99956.59;;;22.90;28.67
38780;BME280;29273;49.962;9.768;2023-06-05T09:22:13;99956.53;;;22.96;28.45
38780;BME280;29273;49.962;9.768;2023-06-05T09:24:40;99945.44;;;23.02;28.25
38780;BME280;29273;49.962;9.768;2023-06-05T09:27:08;99950.25;;;23.11;28.11
38780;BME280;29273;49.962;9.768;2023-06-05T09:29:38;99951.03;;;23.16;27.96
38780;BME280;29273;49.962;9.768;2023-06-05T09:32:09;99952.84;;;23.26;28.60
38780;BME280;29273;49.962;9.768;2023-06-05T09:34:39;99950.09;;;23.31;29.09
38780;BME280;29273;49.962;9.768;2023-06-05T09:37:09;99953.91;;;23.30;27.88
38780;BME280;29273;49.962;9.768;2023-06-05T09:39:36;99949.75;;;23.38;27.42
38780;BME280;29273;49.962;9.768;2023-06-05T09:42:03;99954.59;;;23.41;27.03
38780;BME280;29273;49.962;9.768;2023-06-05T09:44:29;99945.38;;;23.47;26.95
38780;BME280;29273;49.962;9.768;2023-06-05T09:51:52;99936.59;;;23.60;26.33
38780;BME280;29273;49.962;9.768;2023-06-05T09:54:19;99933.50;;;23.72;26.79
38780;BME280;29273;49.962;9.768;2023-06-05T09:56:47;99937.22;;;23.76;26.88
38780;BME280;29273;49.962;9.768;2023-06-05T09:59:20;99935.84;;;23.84;27.05
38780;BME280;29273;49.962;9.768;2023-06-05T10:01:51;99930.16;;;23.86;26.30
38780;BME280;29273;49.962;9.768;2023-06-05T10:04:27;99929.53;;;23.94;27.19
38780;BME280;29273;49.962;9.768;2023-06-05T10:06:55;99928.44;;;23.95;26.97
38780;BME280;29273;49.962;9.768;2023-06-05T10:09:24;99920.25;;;24.00;26.60
38780;BME280;29273;49.962;9.768;2023-06-05T10:11:51;99921.56;;;24.02;26.29
38780;BME280;29273;49.962;9.768;2023-06-05T10:14:18;99921.00;;;24.06;25.38
38780;BME280;29273;49.962;9.768;2023-06-05T10:16:45;99924.44;;;24.11;25.57
38780;BME280;29273;49.962;9.768;2023-06-05T10:19:13;99914.66;;;24.15;25.06
38780;BME280;29273;49.962;9.768;2023-06-05T10:21:41;99910.81;;;24.22;25.28
38780;BME280;29273;49.962;9.768;2023-06-05T10:24:11;99928.28;;;24.29;25.93
38780;BME280;29273;49.962;9.768;2023-06-05T10:27:09;99912.03;;;24.29;26.67
38780;BME280;29273;49.962;9.768;2023-06-05T10:29:43;99901.72;;;24.31;24.69
38780;BME280;29273;49.962;9.768;2023-06-05T10:34:56;99902.56;;;24.51;26.31
38780;BME280;29273;49.962;9.768;2023-06-05T10:40:22;99900.06;;;24.54;25.49
38780;BME280;29273;49.962;9.768;2023-06-05T10:42:49;99899.22;;;24.59;25.03
38780;BME280;29273;49.962;9.768;2023-06-05T10:45:29;99897.97;;;24.70;26.61
38780;BME280;29273;49.962;9.768;2023-06-05T10:47:56;99893.16;;;24.67;24.64
38780;BME280;29273;49.962;9.768;2023-06-05T10:50:23;99895.19;;;24.75;24.92
38780;BME280;29273;49.962;9.768;2023-06-05T10:52:51;99888.59;;;24.82;23.94
38780;BME280;29273;49.962;9.768;2023-06-05T10:55:17;99888.31;;;24.83;24.94
38780;BME280;29273;49.962;9.768;2023-06-05T11:00:30;99890.56;;;24.95;25.58
38780;BME280;29273;49.962;9.768;2023-06-05T11:02:57;99884.31;;;24.94;24.38
38780;BME280;29273;49.962;9.768;2023-06-05T11:05:23;99885.34;;;24.99;24.60
38780;BME280;29273;49.962;9.768;2023-06-05T11:11:02;99878.38;;;25.11;24.98
38780;BME280;29273;49.962;9.768;2023-06-05T11:13:51;99878.28;;;25.17;25.51
38780;BME280;29273;49.962;9.768;2023-06-05T11:16:30;99877.06;;;25.23;25.03
38780;BME280;29273;49.962;9.768;2023-06-05T11:24:31;99864.06;;;25.25;23.30
38780;BME280;29273;49.962;9.768;2023-06-05T11:26:58;99871.28;;;25.29;23.96
38780;BME280;29273;49.962;9.768;2023-06-05T11:29:23;99871.53;;;25.33;24.34
38780;BME280;29273;49.962;9.768;2023-06-05T11:31:51;99863.06;;;25.35;23.04
38780;BME280;29273;49.962;9.768;2023-06-05T11:34:17;99857.06;;;25.38;23.13
38780;BME280;29273;49.962;9.768;2023-06-05T11:36:43;99855.06;;;25.43;23.46
38780;BME280;29273;49.962;9.768;2023-06-05T11:39:10;99859.59;;;25.48;23.09
38780;BME280;29273;49.962;9.768;2023-06-05T11:41:43;99851.56;;;25.57;24.41
38780;BME280;29273;49.962;9.768;2023-06-05T11:44:09;99849.66;;;25.57;23.62
38780;BME280;29273;49.962;9.768;2023-06-05T11:46:42;99849.75;;;25.66;24.13
38780;BME280;29273;49.962;9.768;2023-06-05T11:49:27;99845.63;;;25.69;24.02
38780;BME280;29273;49.962;9.768;2023-06-05T11:51:54;99844.53;;;25.70;22.66
38780;BME280;29273;49.962;9.768;2023-06-05T11:54:28;99838.63;;;25.81;23.63
38780;BME280;29273;49.962;9.768;2023-06-05T11:57:01;99835.25;;;25.84;23.67
38780;BME280;29273;49.962;9.768;2023-06-05T11:59:34;99840.69;;;25.84;22.54
38780;BME280;29273;49.962;9.768;2023-06-05T12:02:00;99846.34;;;25.88;22.93
38780;BME280;29273;49.962;9.768;2023-06-05T12:04:28;99834.81;;;25.96;22.38
38780;BME280;29273;49.962;9.768;2023-06-05T12:06:53;99831.16;;;26.01;21.60
38780;BME280;29273;49.962;9.768;2023-06-05T12:09:20;99820.19;;;26.06;21.95
38780;BME280;29273;49.962;9.768;2023-06-05T12:11:46;99821.69;;;26.12;21.70
38780;BME280;29273;49.962;9.768;2023-06-05T12:14:28;99823.38;;;26.22;23.07
38780;BME280;29273;49.962;9.768;2023-06-05T12:16:53;99828.00;;;26.21;22.23
38780;BME280;29273;49.962;9.768;2023-06-05T12:19:19;99821.66;;;26.26;22.52
38780;BME280;29273;49.962;9.768;2023-06-05T12:21:46;99822.34;;;26.32;21.51
38780;BME280;29273;49.962;9.768;2023-06-05T12:24:12;99816.81;;;26.37;21.50
38780;BME280;29273;49.962;9.768;2023-06-05T12:26:58;99811.13;;;26.47;22.99
38780;BME280;29273;49.962;9.768;2023-06-05T12:29:24;99811.13;;;26.47;21.38
38780;BME280;29273;49.962;9.768;2023-06-05T12:31:51;99816.13;;;26.54;21.39
38780;BME280;29273;49.962;9.768;2023-06-05T12:34:17;99801.63;;;26.58;21.76
38780;BME280;29273;49.962;9.768;2023-06-05T12:36:43;99802.03;;;26.66;21.17
38780;BME280;29273;49.962;9.768;2023-06-05T12:39:11;99792.94;;;26.70;21.08
38780;BME280;29273;49.962;9.768;2023-06-05T12:41:38;99791.22;;;26.74;22.02
38780;BME280;29273;49.962;9.768;2023-06-05T12:44:04;99795.88;;;26.83;21.32
38780;BME280;29273;49.962;9.768;2023-06-05T12:46:31;99801.19;;;26.88;20.66
38780;BME280;29273;49.962;9.768;2023-06-05T12:48:58;99792.81;;;26.98;20.05
38780;BME280;29273;49.962;9.768;2023-06-05T12:51:24;99796.19;;;27.04;20.48
38780;BME280;29273;49.962;9.768;2023-06-05T12:53:56;99796.53;;;27.11;20.16
38780;BME280;29273;49.962;9.768;2023-06-05T12:56:22;99791.47;;;27.18;20.25
38780;BME280;29273;49.962;9.768;2023-06-05T12:58:56;99783.53;;;27.30;20.95
38780;BME280;29273;49.962;9.768;2023-06-05T13:01:23;99785.63;;;27.34;20.99
38780;BME280;29273;49.962;9.768;2023-06-05T13:03:49;99789.00;;;27.39;19.66
38780;BME280;29273;49.962;9.768;2023-06-05T13:06:15;99774.44;;;27.44;20.00
38780;BME280;29273;49.962;9.768;2023-06-05T13:08:40;99775.91;;;27.50;19.94
38780;BME280;29273;49.962;9.768;2023-06-05T13:11:06;99781.22;;;27.55;19.52
38780;BME280;29273;49.962;9.768;2023-06-05T13:13:31;99787.81;;;27.63;19.72
38780;BME280;29273;49.962;9.768;2023-06-05T13:16:01;99783.78;;;27.69;19.88
38780;BME280;29273;49.962;9.768;2023-06-05T13:18:29;99780.13;;;27.82;20.89
38780;BME280;29273;49.962;9.768;2023-06-05T13:20:55;99782.53;;;27.84;20.12